Time;durP1;ratioP1;P1;durP2;ratioP2;P2;SDS_P1;SDS_P2;PMS_P1;PMS_P2;Temp;Humidity;BMP_temperature;BMP_pressure;BME280_temperature;BME280_humidity;BME280_pressure;Samples;Min_cycle;Max_cycle;Signal;HPM_P1;HPM_P2
2023/11/04 00:00:21;;;;;;;9.18;4.45;;;;;;;12.67;77.35;92477.75;4945524;28;20066;-73
2023/11/04 00:02:47;;;;;;;7.60;4.25;;;;;;;12.61;77.38;92463.22;4951052;28;20039;-75
2023/11/04 00:05:12;;;;;;;9.55;3.88;;;;;;;12.68;77.75;92476.63;4945255;28;20776;-73
2023/11/04 00:07:38;;;;;;;8.90;4.90;;;;;;;12.80;77.47;92467.69;4950333;28;20037;-73
2023/11/04 00:10:04;;;;;;;7.50;4.63;;;;;;;12.76;77.69;92456.94;4950125;28;20502;-73
2023/11/04 00:12:30;;;;;;;11.93;4.93;;;;;;;12.81;77.12;92443.28;4949957;28;20430;-73
2023/11/04 00:14:55;;;;;;;6.57;4.43;;;;;;;13.00;76.19;92455.00;4948822;28;20047;-73
2023/11/04 00:17:21;;;;;;;8.27;5.40;;;;;;;13.05;76.75;92452.03;4949466;28;20043;-72
2023/11/04 00:19:46;;;;;;;8.40;4.57;;;;;;;13.12;75.62;92454.78;4943056;28;20047;-73
2023/11/04 00:22:11;;;;;;;7.68;4.63;;;;;;;13.22;75.72;92446.91;4947454;28;20023;-74
2023/11/04 00:24:37;;;;;;;12.43;5.38;;;;;;;12.97;75.23;92447.69;4948557;28;20043;-73
2023/11/04 00:27:02;;;;;;;8.77;4.82;;;;;;;12.98;75.36;92457.25;4946799;28;20039;-73
2023/11/04 00:29:28;;;;;;;6.50;4.45;;;;;;;13.09;75.06;92450.16;4948730;28;20595;-73
2023/11/04 00:31:54;;;;;;;7.72;5.38;;;;;;;12.99;75.41;92450.78;4947158;28;20868;-72
2023/11/04 00:34:19;;;;;;;8.95;5.53;;;;;;;13.04;75.85;92450.47;4951063;28;20026;-73
2023/11/04 00:36:44;;;;;;;7.63;4.85;;;;;;;12.93;76.59;92460.22;4947852;28;20515;-73
2023/11/04 00:39:12;;;;;;;9.05;6.07;;;;;;;13.01;76.43;92462.63;4950155;28;20565;-73
2023/11/04 00:41:38;;;;;;;11.38;5.57;;;;;;;13.21;75.89;92444.59;4945962;28;20058;-73
2023/11/04 00:44:05;;;;;;;8.18;6.10;;;;;;;13.23;75.21;92437.00;4963449;28;20110;-73
2023/11/04 00:46:31;;;;;;;9.85;5.68;;;;;;;13.30;74.92;92447.75;4945534;28;20090;-74
2023/11/04 00:48:58;;;;;;;9.35;5.70;;;;;;;13.45;73.94;92432.69;4950997;28;20022;-74
2023/11/04 00:51:23;;;;;;;11.00;5.53;;;;;;;13.56;73.55;92450.38;4946764;28;20074;-73
2023/11/04 00:53:48;;;;;;;11.00;7.45;;;;;;;13.50;73.52;92435.81;4950215;28;20153;-72
2023/11/04 00:56:14;;;;;;;7.82;5.93;;;;;;;13.57;73.67;92451.94;4947349;28;20035;-72
2023/11/04 00:58:39;;;;;;;9.57;6.15;;;;;;;13.59;73.64;92443.59;4949135;28;20122;-73
2023/11/04 01:01:07;;;;;;;10.07;6.57;;;;;;;13.49;73.95;92434.28;4948236;28;20023;-73
2023/11/04 01:03:33;;;;;;;12.20;6.03;;;;;;;13.49;73.97;92422.84;4947547;28;20441;-73
2023/11/04 01:05:58;;;;;;;10.55;6.80;;;;;;;13.56;73.71;92420.22;4949085;28;20382;-73
2023/11/04 01:08:24;;;;;;;7.82;6.10;;;;;;;13.51;74.33;92415.22;4948282;28;20071;-73
2023/11/04 01:10:49;;;;;;;11.27;6.68;;;;;;;13.57;73.49;92411.84;4947670;28;20071;-73
2023/11/04 01:13:15;;;;;;;10.40;6.68;;;;;;;13.42;73.88;92388.78;4946628;28;20031;-74
2023/11/04 01:15:40;;;;;;;11.38;6.65;;;;;;;13.49;73.81;92401.47;4948459;28;20411;-74
2023/11/04 01:18:06;;;;;;;11.38;7.05;;;;;;;13.56;73.60;92396.19;4949746;28;20035;-74
2023/11/04 01:20:31;;;;;;;11.35;6.57;;;;;;;13.63;73.22;92391.75;4944471;28;20042;-73
2023/11/04 01:22:57;;;;;;;10.32;6.65;;;;;;;13.58;72.60;92381.34;4950892;28;20523;-73
2023/11/04 01:25:22;;;;;;;9.35;5.65;;;;;;;13.59;72.88;92390.91;4948026;28;20070;-74
2023/11/04 01:27:47;;;;;;;10.52;7.13;;;;;;;13.66;72.97;92399.00;4949773;28;20434;-74
2023/11/04 01:30:13;;;;;;;9.80;5.45;;;;;;;13.55;73.41;92398.09;4947963;28;20163;-74
2023/11/04 01:32:39;;;;;;;14.25;5.97;;;;;;;13.43;73.94;92409.03;4947924;28;20131;-73
2023/11/04 01:35:05;;;;;;;6.93;5.28;;;;;;;13.47;73.38;92377.78;4949301;28;20047;-73
2023/11/04 01:37:30;;;;;;;10.43;5.78;;;;;;;13.64;73.05;92393.25;4949425;28;20026;-73
2023/11/04 01:39:56;;;;;;;10.55;6.20;;;;;;;13.69;72.54;92416.97;4949424;28;20030;-73
2023/11/04 01:42:21;;;;;;;12.60;5.55;;;;;;;13.57;73.13;92425.22;4946812;28;20027;-73
2023/11/04 01:44:46;;;;;;;8.45;6.25;;;;;;;13.78;72.78;92482.72;4946538;28;20503;-75
2023/11/04 01:47:13;;;;;;;6.82;5.10;;;;;;;13.60;73.79;92509.97;4950188;28;20039;-73
2023/11/04 01:49:38;;;;;;;7.63;5.93;;;;;;;13.47;74.06;92511.31;4946845;28;20039;-73
2023/11/04 01:52:06;;;;;;;9.93;6.13;;;;;;;13.14;75.92;92513.91;4948169;28;20031;-74
2023/11/04 01:54:33;;;;;;;12.15;6.32;;;;;;;13.11;76.36;92510.06;4949920;28;20043;-73
2023/11/04 01:57:00;;;;;;;11.18;5.47;;;;;;;12.57;76.03;92411.66;4948961;28;20050;-74
2023/11/04 01:59:26;;;;;;;12.50;5.50;;;;;;;13.21;76.32;92500.66;4949406;28;20035;-73
2023/11/04 02:01:52;;;;;;;10.02;5.95;;;;;;;13.26;76.17;92497.66;4949113;28;20150;-73
2023/11/04 02:04:17;;;;;;;10.70;5.57;;;;;;;13.42;75.74;92490.28;4949145;28;20077;-73
2023/11/04 02:06:46;;;;;;;8.55;2.70;;;;;;;13.25;74.83;92467.53;4944848;28;20445;-74
2023/11/04 02:09:12;;;;;;;9.95;3.25;;;;;;;13.33;75.47;92487.09;4960779;28;20041;-73
2023/11/04 02:11:37;;;;;;;6.90;1.80;;;;;;;13.21;75.35;92471.28;4959773;28;20039;-73
2023/11/04 02:14:04;;;;;;;3.15;1.52;;;;;;;13.11;76.04;92472.69;4945626;28;20118;-73
2023/11/04 02:16:29;;;;;;;1.08;0.80;;;;;;;13.11;75.15;92477.25;4945481;28;20081;-73
2023/11/04 02:18:55;;;;;;;2.83;0.80;;;;;;;12.96;76.24;92457.59;4945987;28;20031;-72
2023/11/04 02:21:21;;;;;;;1.08;0.70;;;;;;;12.79;76.54;92429.56;4947389;28;20618;-73
2023/11/04 02:23:47;;;;;;;1.58;0.40;;;;;;;12.84;74.50;92434.59;4961398;28;20968;-73
2023/11/04 02:26:12;;;;;;;0.40;0.40;;;;;;;12.83;74.45;92403.69;4952181;28;20038;-73
2023/11/04 02:28:38;;;;;;;0.70;0.40;;;;;;;12.72;71.19;92386.75;4948326;28;20146;-73
2023/11/04 02:31:03;;;;;;;0.30;0.30;;;;;;;12.55;72.55;92371.25;4952427;28;20019;-74
2023/11/04 02:33:29;;;;;;;0.40;0.30;;;;;;;12.53;72.56;92384.19;4947603;28;20058;-73
2023/11/04 02:35:54;;;;;;;0.95;0.30;;;;;;;12.47;70.85;92397.03;4946270;28;20697;-73
2023/11/04 02:38:20;;;;;;;2.80;0.38;;;;;;;12.55;71.84;92418.50;4946814;28;20491;-73
2023/11/04 02:40:45;;;;;;;0.30;0.30;;;;;;;12.50;69.51;92432.91;4948262;28;20062;-72
2023/11/04 02:43:11;;;;;;;0.20;0.20;;;;;;;12.51;68.32;92423.78;4944474;28;20626;-74
2023/11/04 02:45:36;;;;;;;0.30;0.30;;;;;;;12.41;68.69;92432.38;4949358;28;20042;-72
2023/11/04 02:48:02;;;;;;;0.20;0.20;;;;;;;12.27;68.93;92419.56;4944583;28;20046;-72
2023/11/04 02:50:28;;;;;;;0.30;0.30;;;;;;;12.32;67.59;92405.19;4948392;28;20038;-73
2023/11/04 02:52:54;;;;;;;0.98;0.30;;;;;;;12.45;67.76;92406.53;4942192;28;20339;-73
2023/11/04 02:55:20;;;;;;;0.30;0.30;;;;;;;12.45;67.51;92419.88;4947497;28;20120;-73
2023/11/04 02:57:46;;;;;;;1.08;0.30;;;;;;;12.53;68.01;92429.50;4945933;28;20526;-73
2023/11/04 03:00:13;;;;;;;0.20;0.20;;;;;;;12.55;67.76;92426.50;4948364;28;20059;-73
2023/11/04 03:02:38;;;;;;;0.35;0.30;;;;;;;12.50;67.31;92406.25;4945853;28;20034;-72
2023/11/04 03:05:04;;;;;;;0.30;0.30;;;;;;;12.59;66.88;92398.78;4946277;28;20100;-74
2023/11/04 03:07:30;;;;;;;0.22;0.20;;;;;;;12.87;66.94;92420.50;4947227;28;20027;-74
2023/11/04 03:09:55;;;;;;;0.30;0.30;;;;;;;13.01;68.88;92414.59;4946401;28;20125;-73
2023/11/04 03:12:21;;;;;;;0.65;0.43;;;;;;;13.07;69.42;92388.38;4948621;28;20039;-73
2023/11/04 03:14:46;;;;;;;3.65;1.30;;;;;;;13.06;70.52;92379.59;4945674;28;21287;-73
2023/11/04 03:17:12;;;;;;;2.20;1.33;;;;;;;13.37;70.47;92394.47;4947817;28;20041;-73
2023/11/04 03:19:38;;;;;;;5.22;1.77;;;;;;;13.45;70.49;92382.72;4945069;28;22291;-73
2023/11/04 03:22:03;;;;;;;2.28;1.75;;;;;;;13.61;70.69;92394.00;4947274;28;20030;-73
2023/11/04 03:24:29;;;;;;;2.17;1.95;;;;;;;13.63;70.78;92386.41;4945932;28;20527;-73
2023/11/04 03:26:55;;;;;;;3.00;2.25;;;;;;;13.22;71.98;92371.41;4947970;28;20085;-73
2023/11/04 03:29:20;;;;;;;4.15;2.10;;;;;;;13.40;72.37;92396.38;4946177;28;20039;-73
2023/11/04 03:31:45;;;;;;;3.60;1.40;;;;;;;13.58;71.60;92381.34;4948442;28;20035;-73
2023/11/04 03:34:11;;;;;;;2.08;1.73;;;;;;;13.68;71.15;92383.41;4944545;28;20019;-74
2023/11/04 03:36:36;;;;;;;2.00;1.52;;;;;;;13.22;70.85;92272.63;4947773;28;20584;-74
2023/11/04 03:39:02;;;;;;;1.90;0.68;;;;;;;13.80;69.89;92338.84;4943073;28;20125;-73
2023/11/04 03:41:28;;;;;;;1.13;0.60;;;;;;;13.82;68.89;92320.53;4946348;28;20083;-73
2023/11/04 03:43:53;;;;;;;2.22;1.10;;;;;;;13.67;69.57;92317.75;4948307;28;20541;-74
2023/11/04 03:46:19;;;;;;;0.90;0.60;;;;;;;13.68;69.91;92334.53;4946055;28;20035;-73
2023/11/04 03:48:45;;;;;;;1.67;0.47;;;;;;;13.75;70.05;92330.03;4947416;28;20023;-73
2023/11/04 03:51:11;;;;;;;1.20;0.63;;;;;;;13.76;69.69;92336.13;4946585;28;20569;-72
2023/11/04 03:53:36;;;;;;;3.25;1.38;;;;;;;13.68;69.60;92319.28;4946716;28;20062;-73
2023/11/04 03:56:02;;;;;;;1.02;0.50;;;;;;;13.82;69.62;92347.25;4960570;28;20043;-73
2023/11/04 03:58:28;;;;;;;2.83;0.50;;;;;;;13.70;69.84;92332.25;4946594;28;20054;-73
2023/11/04 04:00:54;;;;;;;3.25;0.50;;;;;;;13.83;69.24;92346.91;4946600;28;20434;-73
2023/11/04 04:03:20;;;;;;;1.17;0.60;;;;;;;13.73;69.57;92326.97;4946708;28;20584;-73
2023/11/04 04:05:45;;;;;;;1.52;0.60;;;;;;;13.85;69.63;92341.94;4947610;28;20122;-73
2023/11/04 04:08:10;;;;;;;2.55;0.80;;;;;;;13.89;69.45;92353.41;4952428;28;20039;-74
2023/11/04 04:10:36;;;;;;;2.22;0.50;;;;;;;13.96;68.94;92345.47;4949525;28;20400;-73
2023/11/04 04:13:02;;;;;;;1.05;0.80;;;;;;;13.88;68.50;92314.50;4950735;28;20026;-73
2023/11/04 04:15:27;;;;;;;5.90;1.05;;;;;;;14.00;68.82;92332.13;4947023;28;20047;-73
2023/11/04 04:17:52;;;;;;;1.35;1.10;;;;;;;13.98;68.82;92335.19;4950170;28;20366;-72
2023/11/04 04:20:20;;;;;;;2.53;1.00;;;;;;;13.73;69.84;92302.16;4948768;28;20043;-73
2023/11/04 04:22:46;;;;;;;3.35;1.13;;;;;;;14.00;69.44;92334.81;4950227;28;20442;-73
2023/11/04 04:25:11;;;;;;;2.78;0.88;;;;;;;14.00;69.47;92313.44;4948910;28;20050;-73
2023/11/04 04:27:37;;;;;;;1.92;1.30;;;;;;;13.99;69.37;92333.28;4950500;28;20490;-73
2023/11/04 04:30:04;;;;;;;2.17;0.90;;;;;;;13.96;70.20;92360.75;4949640;28;20045;-73
2023/11/04 04:32:30;;;;;;;2.92;1.30;;;;;;;13.85;70.50;92357.19;4946361;28;20043;-74
2023/11/04 04:34:55;;;;;;;4.88;1.83;;;;;;;13.59;71.28;92390.91;4951807;28;20046;-73
2023/11/04 04:37:21;;;;;;;5.90;2.60;;;;;;;13.17;73.82;92449.91;4949132;28;20026;-73
2023/11/04 04:39:46;;;;;;;8.23;1.90;;;;;;;12.90;75.06;92507.09;4946918;28;20046;-74
2023/11/04 04:42:11;;;;;;;4.05;1.10;;;;;;;12.33;71.89;92454.69;4962908;28;20177;-73
2023/11/04 04:44:37;;;;;;;3.03;0.60;;;;;;;12.28;69.91;92481.66;4948623;28;20085;-73
2023/11/04 04:47:02;;;;;;;2.10;0.60;;;;;;;12.20;68.62;92493.31;4949218;28;20140;-74
2023/11/04 04:49:28;;;;;;;1.45;0.60;;;;;;;12.08;70.61;92464.19;4953650;28;20102;-73
2023/11/04 04:51:54;;;;;;;0.75;0.47;;;;;;;12.16;68.99;92458.63;4951000;28;20022;-73
2023/11/04 04:54:19;;;;;;;1.30;0.60;;;;;;;12.13;69.75;92456.66;4947206;28;20086;-74
2023/11/04 04:56:46;;;;;;;3.42;0.50;;;;;;;12.06;69.18;92445.88;4948561;28;20069;-73
2023/11/04 04:59:12;;;;;;;0.77;0.55;;;;;;;11.88;69.09;92421.59;4949595;28;20553;-73
2023/11/04 05:01:37;;;;;;;0.85;0.40;;;;;;;11.80;69.20;92401.28;4947947;28;20026;-72
2023/11/04 05:04:03;;;;;;;1.45;0.63;;;;;;;11.79;68.41;92389.09;4949469;28;20023;-72
2023/11/04 05:06:29;;;;;;;0.32;0.32;;;;;;;11.67;68.85;92375.94;4947593;28;20046;-74
2023/11/04 05:08:55;;;;;;;0.95;0.57;;;;;;;11.44;70.04;92383.84;4948330;28;20038;-73
2023/11/04 05:11:21;;;;;;;0.65;0.45;;;;;;;11.38;69.46;92408.47;4948900;28;20039;-73
2023/11/04 05:13:46;;;;;;;0.75;0.40;;;;;;;10.95;69.91;92373.03;4946065;28;20053;-73
2023/11/04 05:16:12;;;;;;;3.53;0.60;;;;;;;11.01;70.97;92408.09;4950638;28;20453;-73
2023/11/04 05:18:37;;;;;;;4.05;0.52;;;;;;;11.05;70.91;92441.63;4952686;28;20130;-72
2023/11/04 05:21:03;;;;;;;0.68;0.40;;;;;;;11.09;71.44;92453.13;4950436;28;20050;-73
2023/11/04 05:23:29;;;;;;;0.50;0.50;;;;;;;11.04;71.83;92434.78;4950152;28;20122;-74
2023/11/04 05:25:56;;;;;;;1.85;0.57;;;;;;;10.96;72.11;92417.13;4949356;28;20426;-73
2023/11/04 05:28:22;;;;;;;0.35;0.35;;;;;;;11.08;72.24;92440.19;4947979;28;20061;-73
2023/11/04 05:30:47;;;;;;;1.48;0.50;;;;;;;11.04;71.40;92423.38;4947315;28;21178;-74
2023/11/04 05:33:12;;;;;;;2.22;0.70;;;;;;;11.12;72.20;92423.16;4952490;28;20062;-73
2023/11/04 05:35:38;;;;;;;3.10;0.60;;;;;;;10.87;71.11;92365.25;4947072;28;20077;-73
2023/11/04 05:38:03;;;;;;;0.40;0.40;;;;;;;10.97;72.00;92391.28;4948381;28;20537;-73
2023/11/04 05:40:28;;;;;;;1.30;0.50;;;;;;;10.89;71.83;92389.63;4947203;28;20189;-74
2023/11/04 05:42:57;;;;;;;0.73;0.40;;;;;;;10.98;72.38;92404.25;4948857;28;20474;-73
2023/11/04 05:45:24;;;;;;;0.75;0.40;;;;;;;10.94;70.59;92374.16;4961226;28;20138;-73
2023/11/04 05:47:49;;;;;;;0.40;0.40;;;;;;;10.89;70.37;92353.16;4947804;28;20086;-72
2023/11/04 05:50:14;;;;;;;0.40;0.40;;;;;;;10.95;69.80;92346.44;4948758;28;20494;-73
2023/11/04 05:52:42;;;;;;;0.40;0.40;;;;;;;11.04;70.95;92335.59;4947842;28;20046;-73
2023/11/04 05:55:11;;;;;;;0.30;0.30;;;;;;;11.18;68.73;92365.13;4948191;28;20216;-73
2023/11/04 05:57:38;;;;;;;0.60;0.60;;;;;;;11.24;70.53;92416.19;4948131;28;20042;-73
2023/11/04 06:00:11;;;;;;;0.40;0.40;;;;;;;11.06;72.50;92389.19;4947371;28;20136;-73
2023/11/04 06:02:39;;;;;;;0.45;0.43;;;;;;;11.61;71.81;92430.59;4947091;28;20497;-73
2023/11/04 06:05:09;;;;;;;0.50;0.50;;;;;;;11.46;71.29;92436.75;4961543;28;20040;-73
2023/11/04 06:07:35;;;;;;;2.22;1.10;;;;;;;11.37;72.40;92447.63;4946187;28;20282;-72
2023/11/04 06:10:01;;;;;;;1.45;1.10;;;;;;;11.14;72.73;92450.22;4954704;28;20940;-73
2023/11/04 06:12:27;;;;;;;0.55;0.40;;;;;;;11.18;72.87;92459.03;4943881;28;20651;-74
2023/11/04 06:14:52;;;;;;;3.38;1.17;;;;;;;11.40;71.65;92459.44;4939953;28;20066;-73
2023/11/04 06:17:17;;;;;;;1.65;0.60;;;;;;;11.63;69.79;92423.06;4938254;28;20066;-73
2023/11/04 06:19:43;;;;;;;0.30;0.30;;;;;;;11.39;68.74;92386.06;4937226;28;20042;-73
2023/11/04 06:22:08;;;;;;;0.52;0.50;;;;;;;11.17;69.29;92371.56;4936765;28;20038;-74
2023/11/04 06:24:37;;;;;;;0.80;0.60;;;;;;;11.56;69.92;92364.34;4937354;28;20033;-73
2023/11/04 06:27:02;;;;;;;4.20;1.80;;;;;;;11.35;70.07;92347.94;4938252;28;20027;-73
2023/11/04 06:29:28;;;;;;;2.65;1.08;;;;;;;11.48;71.13;92358.09;4936873;28;20374;-73
2023/11/04 06:31:53;;;;;;;5.45;1.85;;;;;;;11.86;69.80;92375.91;4939375;28;20469;-74
2023/11/04 06:34:19;;;;;;;2.45;0.90;;;;;;;12.07;68.69;92382.72;4935893;28;20345;-74
2023/11/04 06:36:44;;;;;;;1.05;0.68;;;;;;;12.24;69.67;92395.53;4936466;28;20026;-75
2023/11/04 06:39:09;;;;;;;2.22;1.20;;;;;;;12.03;71.04;92420.69;4940682;28;20186;-74
2023/11/04 06:41:35;;;;;;;1.58;0.50;;;;;;;12.00;70.25;92431.31;4936810;28;20039;-74
2023/11/04 06:44:00;;;;;;;1.15;0.68;;;;;;;12.24;71.17;92446.19;4940193;28;20026;-73
2023/11/04 06:46:26;;;;;;;3.40;1.88;;;;;;;12.26;71.03;92423.38;4939528;28;20223;-74
2023/11/04 06:48:54;;;;;;;3.40;1.90;;;;;;;12.22;70.55;92400.47;4939657;28;20023;-73
2023/11/04 06:51:19;;;;;;;3.35;1.08;;;;;;;12.35;70.48;92391.16;4938077;28;20050;-73
2023/11/04 06:53:45;;;;;;;6.15;3.10;;;;;;;12.37;70.75;92364.91;4954711;28;20417;-73
2023/11/04 06:56:10;;;;;;;4.50;3.45;;;;;;;12.53;70.75;92341.50;4938693;28;20035;-73
2023/11/04 06:58:36;;;;;;;6.10;2.67;;;;;;;12.66;70.61;92340.22;4938500;28;20079;-73
2023/11/04 07:01:01;;;;;;;2.80;1.50;;;;;;;12.59;70.50;92329.44;4935542;28;20031;-74
2023/11/04 07:03:30;;;;;;;3.50;1.20;;;;;;;12.55;69.93;92339.25;4936550;28;20038;-74
2023/11/04 07:05:56;;;;;;;3.05;1.17;;;;;;;12.73;69.30;92366.97;4939378;28;20043;-73
2023/11/04 07:08:21;;;;;;;4.47;0.90;;;;;;;12.82;69.57;92386.16;4936571;28;20039;-73
2023/11/04 07:10:47;;;;;;;4.78;0.90;;;;;;;12.84;69.48;92377.78;4940239;28;20404;-73
2023/11/04 07:13:14;;;;;;;1.30;1.00;;;;;;;12.87;69.03;92375.16;4937327;28;20029;-72
2023/11/04 07:15:44;;;;;;;4.63;0.90;;;;;;;12.85;69.52;92374.75;4940335;28;20129;-73
2023/11/04 07:18:14;;;;;;;4.35;1.27;;;;;;;12.79;69.24;92380.75;4934181;28;20066;-74
2023/11/04 07:20:44;;;;;;;3.58;0.90;;;;;;;12.70;69.97;92394.38;4943804;28;21495;-74
2023/11/04 07:23:12;;;;;;;2.85;1.52;;;;;;;12.69;69.85;92427.50;4945184;28;20097;-74
2023/11/04 07:25:38;;;;;;;3.10;1.27;;;;;;;12.78;69.59;92454.69;4946147;28;20042;-71
2023/11/04 07:28:04;;;;;;;3.55;1.30;;;;;;;12.60;70.62;92448.31;4947952;28;20454;-71
2023/11/04 07:30:29;;;;;;;3.22;1.60;;;;;;;12.67;70.15;92431.63;4946635;28;20423;-73
2023/11/04 07:32:54;;;;;;;2.88;1.40;;;;;;;12.76;69.89;92443.59;4940419;28;20035;-72
2023/11/04 07:35:20;;;;;;;2.50;1.40;;;;;;;12.61;70.02;92423.19;4942816;28;20054;-72
2023/11/04 07:37:46;;;;;;;3.60;2.20;;;;;;;12.62;69.97;92456.72;4943711;28;20043;-72
2023/11/04 07:40:13;;;;;;;3.97;1.35;;;;;;;12.70;68.21;92471.72;4945325;28;20026;-72
2023/11/04 07:42:40;;;;;;;4.30;2.15;;;;;;;12.53;68.81;92458.84;4947985;28;20027;-71
2023/11/04 07:45:09;;;;;;;6.95;6.25;;;;;;;12.47;67.68;92438.94;4948201;28;20039;-74
2023/11/04 07:47:34;;;;;;;2.53;1.88;;;;;;;12.34;67.08;92440.25;4948032;28;20288;-74
2023/11/04 07:50:00;;;;;;;1.17;0.47;;;;;;;12.32;67.04;92459.25;4948522;28;20036;-75
2023/11/04 07:52:25;;;;;;;1.48;1.38;;;;;;;12.22;66.91;92459.09;4946832;28;21065;-72
2023/11/04 07:54:51;;;;;;;1.77;0.73;;;;;;;12.11;67.90;92469.56;4947414;28;20030;-73
2023/11/04 07:57:16;;;;;;;2.70;0.90;;;;;;;12.12;67.78;92476.44;4951471;28;20743;-74
2023/11/04 07:59:42;;;;;;;4.53;1.20;;;;;;;12.29;68.67;92470.66;4949636;28;20162;-73
2023/11/04 08:02:07;;;;;;;2.22;1.23;;;;;;;12.40;69.90;92466.25;4947676;28;20054;-75
2023/11/04 08:04:32;;;;;;;10.40;3.90;;;;;;;12.36;70.27;92470.00;4945547;28;20051;-73
2023/11/04 08:06:58;;;;;;;8.40;3.97;;;;;;;12.26;71.70;92486.59;4942501;28;20500;-75
2023/11/04 08:09:23;;;;;;;9.90;5.80;;;;;;;12.28;71.68;92486.97;4943850;28;20074;-72
2023/11/04 08:11:49;;;;;;;4.38;1.50;;;;;;;12.14;69.33;92497.41;4939959;28;20046;-71
2023/11/04 08:14:14;;;;;;;4.50;2.30;;;;;;;11.82;71.78;92504.81;4938259;28;20035;-72
2023/11/04 08:16:40;;;;;;;2.80;1.42;;;;;;;11.65;70.96;92500.69;4941472;28;20397;-72
2023/11/04 08:19:06;;;;;;;2.63;1.30;;;;;;;11.50;72.23;92493.50;4941453;28;20164;-73
2023/11/04 08:21:32;;;;;;;0.80;0.60;;;;;;;11.57;68.92;92473.16;4940382;28;20436;-74
2023/11/04 08:23:58;;;;;;;1.17;0.50;;;;;;;11.49;67.32;92463.44;4941605;28;20081;-72
2023/11/04 08:26:24;;;;;;;0.80;0.40;;;;;;;11.64;66.53;92477.06;4942036;28;20729;-72
2023/11/04 08:28:51;;;;;;;0.63;0.50;;;;;;;11.45;67.15;92472.47;4941972;28;20142;-73
2023/11/04 08:31:17;;;;;;;1.08;0.70;;;;;;;11.42;69.16;92398.66;4940355;28;20775;-72
2023/11/04 08:33:43;;;;;;;5.57;2.55;;;;;;;11.04;73.43;92333.69;4940623;28;20035;-73
2023/11/04 08:36:08;;;;;;;10.80;3.42;;;;;;;10.41;78.26;92337.72;4946038;28;20565;-72
2023/11/04 08:38:34;;;;;;;3.70;1.90;;;;;;;10.30;80.24;92322.28;4939404;28;20494;-72
2023/11/04 08:40:59;;;;;;;2.92;2.00;;;;;;;10.32;80.43;92335.97;4942302;28;20047;-73
2023/11/04 08:43:24;;;;;;;3.47;1.63;;;;;;;10.55;79.84;92336.13;4940080;28;20494;-72
2023/11/04 08:45:51;;;;;;;7.07;2.22;;;;;;;10.68;79.83;92336.75;4940449;28;20054;-73
2023/11/04 08:48:16;;;;;;;4.40;1.60;;;;;;;11.04;78.53;92336.34;4939088;28;20850;-72
2023/11/04 08:50:42;;;;;;;2.22;1.83;;;;;;;11.20;77.78;92330.94;4936677;28;20476;-74
2023/11/04 08:53:07;;;;;;;4.93;2.83;;;;;;;11.37;77.28;92325.19;4938510;28;20273;-72
2023/11/04 08:55:32;;;;;;;4.40;1.83;;;;;;;11.67;76.75;92328.00;4936158;28;20062;-72
2023/11/04 09:00:42;;;;;;;;;;;;;;;12.00;75.04;92319.41;2344129;23;20396;-82
2023/11/04 09:03:08;;;;;;;4.80;2.95;;;;;;;10.68;74.18;92110.78;4955091;28;19965;-82
2023/11/04 09:05:34;;;;;;;2.78;1.55;;;;;;;11.14;73.51;92154.88;4953369;28;20598;-81
2023/11/04 09:07:59;;;;;;;2.28;1.00;;;;;;;12.17;72.72;92281.63;4953090;28;20073;-82
2023/11/04 09:10:25;;;;;;;2.20;0.95;;;;;;;11.65;71.90;92196.34;4962668;28;20043;-82
2023/11/04 09:12:50;;;;;;;0.93;0.80;;;;;;;11.89;70.86;92218.00;4960502;28;20085;-81
2023/11/04 09:15:15;;;;;;;1.10;0.70;;;;;;;12.35;70.98;92282.63;4970418;28;20041;-81
2023/11/04 09:17:41;;;;;;;2.58;1.63;;;;;;;12.08;72.72;92259.75;4961629;28;20051;-81
2023/11/04 09:20:08;;;;;;;3.67;2.05;;;;;;;11.78;73.96;92245.63;4958419;28;20042;-81
2023/11/04 09:22:35;;;;;;;5.55;2.75;;;;;;;11.66;75.38;92278.53;4962989;28;20038;-81
2023/11/04 09:25:00;;;;;;;5.72;2.78;;;;;;;11.92;75.92;92283.91;4967634;28;20341;-82
2023/11/04 09:27:26;;;;;;;4.65;2.30;;;;;;;11.17;76.08;92183.41;4976666;28;20122;-81
2023/11/04 09:29:51;;;;;;;5.38;2.47;;;;;;;11.83;75.65;92214.13;4974004;28;20418;-81
2023/11/04 09:32:18;;;;;;;3.72;1.60;;;;;;;11.59;75.85;92201.97;4954178;28;20039;-81
2023/11/04 09:34:44;;;;;;;5.35;1.77;;;;;;;11.37;74.94;92141.53;4959537;28;20694;-82
2023/11/04 09:37:11;;;;;;;2.38;1.85;;;;;;;12.36;73.92;92241.50;4956753;28;20494;-82
2023/11/04 09:39:39;;;;;;;2.38;1.80;;;;;;;11.71;72.97;92115.81;4969393;28;20109;-82
2023/11/04 09:42:09;;;;;;;1.88;1.75;;;;;;;12.22;71.88;92196.03;4952474;28;20031;-82
2023/11/04 09:44:35;;;;;;;2.17;1.10;;;;;;;12.14;71.15;92174.94;4953005;28;20411;-83
2023/11/04 09:47:00;;;;;;;2.53;1.63;;;;;;;12.72;71.52;92252.63;4956804;28;20039;-83
2023/11/04 09:49:26;;;;;;;3.25;1.70;;;;;;;12.72;71.74;92245.41;4956284;28;20034;-81
2023/11/04 09:51:56;;;;;;;5.05;1.88;;;;;;;12.68;71.41;92236.59;4953561;28;20069;-83
2023/11/04 09:54:22;;;;;;;3.15;1.85;;;;;;;12.79;70.77;92236.72;4942270;28;20489;-83
2023/11/04 09:56:48;;;;;;;3.75;1.95;;;;;;;12.76;70.91;92232.13;4937535;28;20401;-82
2023/11/04 09:59:14;;;;;;;4.50;1.55;;;;;;;12.78;70.87;92224.50;4927091;28;20031;-82
2023/11/04 10:01:40;;;;;;;2.58;1.80;;;;;;;12.56;70.76;92207.47;4940596;28;20706;-82
2023/11/04 10:04:06;;;;;;;5.03;3.35;;;;;;;12.43;72.05;92241.59;4953395;28;20026;-81
2023/11/04 10:06:32;;;;;;;7.85;2.90;;;;;;;12.67;72.63;92260.94;4955847;28;20027;-82
2023/11/04 10:08:58;;;;;;;9.65;5.40;;;;;;;12.69;72.26;92235.47;4955598;28;20034;-83
2023/11/04 10:11:24;;;;;;;21.25;14.60;;;;;;;12.88;71.98;92259.31;4953854;28;20054;-82
2023/11/04 10:13:49;;;;;;;8.43;5.07;;;;;;;12.99;71.72;92264.00;4947655;28;20097;-82
2023/11/04 10:16:15;;;;;;;10.07;4.13;;;;;;;12.89;71.84;92242.19;4951106;28;20038;-82
2023/11/04 10:18:41;;;;;;;7.22;3.63;;;;;;;12.27;72.09;92149.63;4955876;28;20030;-82
2023/11/04 10:21:06;;;;;;;7.05;3.15;;;;;;;12.85;71.80;92217.38;4952533;28;20039;-82
2023/11/04 10:23:32;;;;;;;5.75;3.00;;;;;;;12.48;72.60;92144.53;4953509;28;20035;-82
2023/11/04 10:26:03;;;;;;;7.70;3.10;;;;;;;12.55;72.60;92136.59;4949785;28;20042;-86
2023/11/04 10:28:30;;;;;;;5.45;2.60;;;;;;;12.77;73.51;92175.72;4934323;28;20340;-82
2023/11/04 10:31:04;;;;;;;4.60;2.17;;;;;;;12.16;73.88;92124.75;4953481;28;20026;-83
2023/11/04 10:33:35;;;;;;;3.83;2.03;;;;;;;12.38;73.45;92147.84;4941385;28;20043;-82
2023/11/04 10:36:05;;;;;;;2.85;1.60;;;;;;;12.53;72.61;92189.53;4954042;28;20384;-83
2023/11/04 10:38:38;;;;;;;2.55;1.58;;;;;;;12.68;71.82;92163.81;4934710;28;20788;-83
2023/11/04 10:41:06;;;;;;;5.32;2.17;;;;;;;13.00;71.99;92226.28;4936096;28;20315;-83
2023/11/04 10:43:51;;;;;;;2.28;1.58;;;;;;;12.77;71.52;92221.06;4952178;28;20038;-83
2023/11/04 10:46:57;;;;;;;3.28;1.35;;;;;;;12.52;71.70;92232.56;4948357;28;20027;-84
2023/11/04 10:49:33;;;;;;;2.03;1.10;;;;;;;12.73;71.47;92222.94;4912910;29;20054;-82
2023/11/04 10:52:05;;;;;;;3.25;2.20;;;;;;;12.08;72.35;92182.50;4953761;28;20314;-83
2023/11/04 10:54:41;;;;;;;4.15;1.63;;;;;;;12.38;72.43;92195.81;4943949;28;20062;-83
2023/11/04 10:57:30;;;;;;;4.25;1.75;;;;;;;12.39;72.47;92189.34;4949659;28;20573;-83
2023/11/04 11:00:13;;;;;;;4.20;1.92;;;;;;;12.36;72.47;92206.09;4942191;28;20046;-83
2023/11/04 11:02:43;;;;;;;6.15;1.65;;;;;;;12.37;72.52;92210.28;4951605;28;20377;-84
2023/11/04 11:05:12;;;;;;;5.80;1.77;;;;;;;12.13;72.91;92194.72;4924031;28;21326;-83
2023/11/04 11:07:47;;;;;;;3.72;2.35;;;;;;;12.20;72.64;92195.59;4943621;28;20249;-83
2023/11/04 11:10:21;;;;;;;1.58;1.20;;;;;;;12.58;73.03;92253.22;4945953;28;20066;-84
2023/11/04 11:12:52;;;;;;;2.22;1.40;;;;;;;12.51;72.51;92252.34;4944813;28;20030;-84
2023/11/04 11:15:18;;;;;;;2.08;1.40;;;;;;;12.17;72.23;92163.59;4951958;28;20233;-84
2023/11/04 11:17:55;;;;;;;1.63;1.20;;;;;;;12.65;71.83;92199.22;4954036;28;20051;-83
2023/11/04 11:20:35;;;;;;;3.28;1.40;;;;;;;12.45;71.59;92179.91;4959228;28;20046;-84
2023/11/04 11:23:13;;;;;;;4.47;2.40;;;;;;;12.21;72.36;92122.53;4934653;28;20041;-83
2023/11/04 11:25:39;;;;;;;2.00;1.80;;;;;;;12.55;72.30;92123.28;4961948;28;20038;-84
2023/11/04 11:28:19;;;;;;;2.40;1.48;;;;;;;12.92;72.02;92159.84;4958805;28;20347;-84
2023/11/04 11:30:44;;;;;;;5.55;3.55;;;;;;;13.05;70.66;92121.13;4940519;28;20652;-83